sensor_id;sensor_type;location;lat;lon;timestamp;pressure;altitude;pressure_sealevel;temperature;humidity
48027;BME280;50714;49.208;5.364;2023-03-13T00:03:43;98701.00;;;10.40;100.00
48027;BME280;50714;49.208;5.364;2023-03-13T00:13:44;98684.81;;;10.40;100.00
48027;BME280;50714;49.208;5.364;2023-03-13T00:23:45;98686.13;;;10.38;100.00
48027;BME280;50714;49.208;5.364;2023-03-13T00:33:47;98672.84;;;10.36;100.00
48027;BME280;50714;49.208;5.364;2023-03-13T00:43:48;98647.75;;;10.36;100.00
48027;BME280;50714;49.208;5.364;2023-03-13T00:53:49;98647.31;;;10.39;100.00
48027;BME280;50714;49.208;5.364;2023-03-13T01:03:55;98637.03;;;10.47;100.00
48027;BME280;50714;49.208;5.364;2023-03-13T01:13:57;98643.63;;;10.51;100.00
48027;BME280;50714;49.208;5.364;2023-03-13T01:23:58;98638.41;;;10.56;100.00
48027;BME280;50714;49.208;5.364;2023-03-13T01:34:01;98615.94;;;10.63;100.00
48027;BME280;50714;49.208;5.364;2023-03-13T01:44:01;98588.25;;;10.67;100.00
48027;BME280;50714;49.208;5.364;2023-03-13T01:54:15;98573.03;;;10.73;100.00
48027;BME280;50714;49.208;5.364;2023-03-13T02:04:19;98575.28;;;10.76;100.00
48027;BME280;50714;49.208;5.364;2023-03-13T02:14:22;98564.19;;;10.84;100.00
48027;BME280;50714;49.208;5.364;2023-03-13T02:34:32;98547.34;;;11.00;100.00
48027;BME280;50714;49.208;5.364;2023-03-13T02:44:40;98545.59;;;11.06;100.00
48027;BME280;50714;49.208;5.364;2023-03-13T02:54:43;98541.97;;;11.12;100.00
48027;BME280;50714;49.208;5.364;2023-03-13T03:04:44;98537.97;;;11.14;100.00
48027;BME280;50714;49.208;5.364;2023-03-13T03:14:45;98540.81;;;11.19;100.00
48027;BME280;50714;49.208;5.364;2023-03-13T03:24:45;98534.13;;;11.22;100.00
48027;BME280;50714;49.208;5.364;2023-03-13T03:34:45;98533.31;;;11.21;100.00
48027;BME280;50714;49.208;5.364;2023-03-13T03:44:46;98533.31;;;11.21;100.00
48027;BME280;50714;49.208;5.364;2023-03-13T03:54:46;98522.41;;;11.28;100.00
48027;BME280;50714;49.208;5.364;2023-03-13T04:04:46;98533.09;;;11.35;100.00
48027;BME280;50714;49.208;5.364;2023-03-13T04:14:47;98525.59;;;11.37;100.00
48027;BME280;50714;49.208;5.364;2023-03-13T04:24:47;98509.97;;;11.39;100.00
48027;BME280;50714;49.208;5.364;2023-03-13T04:34:47;98502.00;;;11.44;100.00
48027;BME280;50714;49.208;5.364;2023-03-13T04:44:48;98485.94;;;11.49;100.00
48027;BME280;50714;49.208;5.364;2023-03-13T04:54:48;98473.59;;;11.53;100.00
48027;BME280;50714;49.208;5.364;2023-03-13T05:04:50;98489.34;;;11.56;100.00
48027;BME280;50714;49.208;5.364;2023-03-13T05:14:50;98486.38;;;11.57;100.00
48027;BME280;50714;49.208;5.364;2023-03-13T05:24:51;98479.22;;;11.63;100.00
48027;BME280;50714;49.208;5.364;2023-03-13T05:34:52;98476.66;;;11.68;100.00
48027;BME280;50714;49.208;5.364;2023-03-13T05:44:52;98468.41;;;11.75;100.00
48027;BME280;50714;49.208;5.364;2023-03-13T05:54:52;98462.81;;;11.76;100.00
48027;BME280;50714;49.208;5.364;2023-03-13T06:04:53;98468.81;;;11.78;100.00
48027;BME280;50714;49.208;5.364;2023-03-13T06:14:53;98474.81;;;11.80;100.00
48027;BME280;50714;49.208;5.364;2023-03-13T06:24:53;98465.38;;;11.83;100.00
48027;BME280;50714;49.208;5.364;2023-03-13T06:34:54;98456.56;;;11.87;100.00
48027;BME280;50714;49.208;5.364;2023-03-13T06:44:54;98450.78;;;11.95;100.00
48027;BME280;50714;49.208;5.364;2023-03-13T06:54:54;98439.97;;;11.95;100.00
48027;BME280;50714;49.208;5.364;2023-03-13T07:04:54;98440.81;;;11.96;100.00
48027;BME280;50714;49.208;5.364;2023-03-13T07:14:55;98437.50;;;11.94;100.00
48027;BME280;50714;49.208;5.364;2023-03-13T07:24:55;98434.00;;;11.93;100.00
48027;BME280;50714;49.208;5.364;2023-03-13T07:34:56;98421.28;;;11.94;100.00
48027;BME280;50714;49.208;5.364;2023-03-13T07:44:56;98422.13;;;11.94;100.00
48027;BME280;50714;49.208;5.364;2023-03-13T07:54:56;98432.81;;;12.01;100.00
48027;BME280;50714;49.208;5.364;2023-03-13T08:04:57;98423.81;;;12.12;100.00
48027;BME280;50714;49.208;5.364;2023-03-13T08:14:57;98418.91;;;12.49;100.00
48027;BME280;50714;49.208;5.364;2023-03-13T08:24:57;98396.84;;;12.57;100.00
48027;BME280;50714;49.208;5.364;2023-03-13T08:34:58;98388.25;;;12.77;100.00
48027;BME280;50714;49.208;5.364;2023-03-13T08:44:58;98371.13;;;13.39;100.00
48027;BME280;50714;49.208;5.364;2023-03-13T08:54:58;98349.38;;;13.34;100.00
48027;BME280;50714;49.208;5.364;2023-03-13T09:04:59;98342.81;;;13.29;100.00
48027;BME280;50714;49.208;5.364;2023-03-13T09:14:59;98342.06;;;13.34;99.05
48027;BME280;50714;49.208;5.364;2023-03-13T09:24:59;98325.47;;;13.30;98.28
48027;BME280;50714;49.208;5.364;2023-03-13T09:35:00;98323.22;;;13.22;97.90
48027;BME280;50714;49.208;5.364;2023-03-13T09:55:26;98297.13;;;13.16;100.00
48027;BME280;50714;49.208;5.364;2023-03-13T10:05:28;98286.34;;;13.21;100.00
48027;BME280;50714;49.208;5.364;2023-03-13T10:15:41;98251.81;;;13.34;100.00
48027;BME280;50714;49.208;5.364;2023-03-13T10:25:44;98247.22;;;13.56;100.00
48027;BME280;50714;49.208;5.364;2023-03-13T10:35:45;98215.94;;;13.70;100.00
48027;BME280;50714;49.208;5.364;2023-03-13T10:45:46;98191.63;;;13.80;100.00
48027;BME280;50714;49.208;5.364;2023-03-13T10:55:47;98177.13;;;13.64;100.00
48027;BME280;50714;49.208;5.364;2023-03-13T11:05:56;98194.22;;;13.70;100.00
48027;BME280;50714;49.208;5.364;2023-03-13T11:16:04;98168.00;;;13.76;100.00
48027;BME280;50714;49.208;5.364;2023-03-13T11:36:27;98131.72;;;16.42;93.42
48027;BME280;50714;49.208;5.364;2023-03-13T11:56:43;98061.09;;;17.79;92.15
48027;BME280;50714;49.208;5.364;2023-03-13T12:16:59;98038.75;;;16.84;83.17
48027;BME280;50714;49.208;5.364;2023-03-13T12:27:17;98046.59;;;15.80;90.64
48027;BME280;50714;49.208;5.364;2023-03-13T13:08:32;97961.16;;;15.46;98.84
48027;BME280;50714;49.208;5.364;2023-03-13T13:18:33;97937.25;;;15.07;98.18
48027;BME280;50714;49.208;5.364;2023-03-13T13:28:34;97940.50;;;15.29;100.00
48027;BME280;50714;49.208;5.364;2023-03-13T13:38:39;97918.47;;;15.61;98.96
48027;BME280;50714;49.208;5.364;2023-03-13T13:48:40;97916.84;;;15.45;98.74
48027;BME280;50714;49.208;5.364;2023-03-13T13:58:43;97908.16;;;15.28;98.56
48027;BME280;50714;49.208;5.364;2023-03-13T14:08:47;97890.78;;;15.24;98.51
48027;BME280;50714;49.208;5.364;2023-03-13T14:18:50;97878.00;;;15.19;97.79
48027;BME280;50714;49.208;5.364;2023-03-13T14:28:54;97838.88;;;14.95;97.62
48027;BME280;50714;49.208;5.364;2023-03-13T14:38:57;97856.25;;;14.79;99.89
48027;BME280;50714;49.208;5.364;2023-03-13T14:49:19;97807.13;;;14.85;100.00
48027;BME280;50714;49.208;5.364;2023-03-13T14:59:24;97767.97;;;15.07;97.80
48027;BME280;50714;49.208;5.364;2023-03-13T15:09:27;97750.28;;;15.24;95.11
48027;BME280;50714;49.208;5.364;2023-03-13T15:19:27;97711.94;;;15.26;92.45
48027;BME280;50714;49.208;5.364;2023-03-13T15:29:27;97694.84;;;15.15;90.06
48027;BME280;50714;49.208;5.364;2023-03-13T15:39:28;97705.28;;;14.78;88.85
48027;BME280;50714;49.208;5.364;2023-03-13T15:49:28;97706.94;;;14.58;88.65
48027;BME280;50714;49.208;5.364;2023-03-13T15:59:28;97692.25;;;14.39;88.45
48027;BME280;50714;49.208;5.364;2023-03-13T16:09:28;97690.06;;;14.21;89.12
48027;BME280;50714;49.208;5.364;2023-03-13T16:19:29;97685.97;;;13.93;91.85
48027;BME280;50714;49.208;5.364;2023-03-13T16:29:30;97671.81;;;13.65;93.81
48027;BME280;50714;49.208;5.364;2023-03-13T16:39:30;97646.53;;;13.35;92.51
48027;BME280;50714;49.208;5.364;2023-03-13T16:49:30;97649.09;;;12.99;90.72
48027;BME280;50714;49.208;5.364;2023-03-13T16:59:30;97682.50;;;12.73;92.02
48027;BME280;50714;49.208;5.364;2023-03-13T17:09:31;97717.81;;;12.56;93.36
48027;BME280;50714;49.208;5.364;2023-03-13T17:19:31;97663.59;;;12.41;94.19
48027;BME280;50714;49.208;5.364;2023-03-13T17:29:31;97649.97;;;12.25;94.47
48027;BME280;50714;49.208;5.364;2023-03-13T17:39:32;97533.88;;;12.14;93.98
48027;BME280;50714;49.208;5.364;2023-03-13T17:49:32;97558.69;;;12.06;93.37
48027;BME280;50714;49.208;5.364;2023-03-13T17:59:32;97599.75;;;11.98;93.12
48027;BME280;50714;49.208;5.364;2023-03-13T18:09:33;97531.28;;;11.92;92.60
48027;BME280;50714;49.208;5.364;2023-03-13T18:19:33;97558.53;;;11.85;92.02
48027;BME280;50714;49.208;5.364;2023-03-13T18:29:33;97539.31;;;11.77;92.53
48027;BME280;50714;49.208;5.364;2023-03-13T18:39:34;97547.59;;;11.70;91.91
48027;BME280;50714;49.208;5.364;2023-03-13T18:49:34;97551.00;;;11.55;92.03
48027;BME280;50714;49.208;5.364;2023-03-13T18:59:34;97457.78;;;11.53;92.25
48027;BME280;50714;49.208;5.364;2023-03-13T19:09:35;97465.00;;;11.47;91.25
48027;BME280;50714;49.208;5.364;2023-03-13T19:19:35;97487.56;;;11.31;91.09
48027;BME280;50714;49.208;5.364;2023-03-13T19:29:35;97495.78;;;11.14;91.17
48027;BME280;50714;49.208;5.364;2023-03-13T19:39:36;97486.47;;;11.00;91.41
48027;BME280;50714;49.208;5.364;2023-03-13T19:49:36;97507.94;;;10.90;90.96
48027;BME280;50714;49.208;5.364;2023-03-13T19:59:36;97548.81;;;10.77;91.42
48027;BME280;50714;49.208;5.364;2023-03-13T20:09:39;97576.72;;;10.66;91.78
48027;BME280;50714;49.208;5.364;2023-03-13T20:19:39;97538.38;;;10.58;92.96
48027;BME280;50714;49.208;5.364;2023-03-13T20:29:39;97519.59;;;10.47;93.59
48027;BME280;50714;49.208;5.364;2023-03-13T20:39:40;97482.53;;;10.37;92.83
48027;BME280;50714;49.208;5.364;2023-03-13T20:49:41;97514.59;;;10.34;92.92
48027;BME280;50714;49.208;5.364;2023-03-13T20:59:41;97547.44;;;10.31;93.54
48027;BME280;50714;49.208;5.364;2023-03-13T21:09:41;97551.50;;;10.33;94.38
48027;BME280;50714;49.208;5.364;2023-03-13T21:19:42;97546.63;;;10.52;93.89
48027;BME280;50714;49.208;5.364;2023-03-13T21:29:43;97530.53;;;10.57;93.14
48027;BME280;50714;49.208;5.364;2023-03-13T21:39:49;97522.50;;;10.62;93.42
48027;BME280;50714;49.208;5.364;2023-03-13T21:49:50;97550.00;;;10.64;93.35
48027;BME280;50714;49.208;5.364;2023-03-13T21:59:50;97535.28;;;10.72;92.90
48027;BME280;50714;49.208;5.364;2023-03-13T22:09:51;97553.72;;;10.80;92.53
48027;BME280;50714;49.208;5.364;2023-03-13T22:19:51;97500.63;;;10.85;91.52
48027;BME280;50714;49.208;5.364;2023-03-13T22:29:51;97561.66;;;10.91;91.10
48027;BME280;50714;49.208;5.364;2023-03-13T22:39:53;97512.59;;;10.94;90.57
48027;BME280;50714;49.208;5.364;2023-03-13T22:49:53;97505.25;;;10.90;90.62
48027;BME280;50714;49.208;5.364;2023-03-13T22:59:55;97503.63;;;10.89;90.79
48027;BME280;50714;49.208;5.364;2023-03-13T23:09:57;97472.34;;;10.93;90.41
48027;BME280;50714;49.208;5.364;2023-03-13T23:19:58;97504.50;;;10.94;89.66
48027;BME280;50714;49.208;5.364;2023-03-13T23:30:02;97520.63;;;10.89;88.89
48027;BME280;50714;49.208;5.364;2023-03-13T23:40:05;97533.38;;;10.72;89.45
48027;BME280;50714;49.208;5.364;2023-03-13T23:50:07;97516.38;;;10.72;89.07
